Time;durP1;ratioP1;P1;durP2;ratioP2;P2;SDS_P1;SDS_P2;PMS_P1;PMS_P2;Temp;Humidity;BMP_temperature;BMP_pressure;BME280_temperature;BME280_humidity;BME280_pressure;Samples;Min_cycle;Max_cycle;Signal;HPM_P1;HPM_P2
2021/11/02 00:00:04;;;;;;;23.95;14.70;;;9.00;99.90;;;;;;5156523;27;20057;-69
2021/11/02 00:02:30;;;;;;;21.98;14.55;;;9.00;99.90;;;;;;5157035;27;20022;-69
2021/11/02 00:04:56;;;;;;;20.90;14.00;;;9.00;99.90;;;;;;5156697;27;20402;-69
2021/11/02 00:07:22;;;;;;;20.70;14.32;;;9.00;99.90;;;;;;5157137;27;20061;-69
2021/11/02 00:09:51;;;;;;;21.98;14.27;;;9.00;99.90;;;;;;5156819;27;20419;-69
2021/11/02 00:12:17;;;;;;;21.17;14.03;;;9.00;99.90;;;;;;5155358;27;20023;-69
2021/11/02 00:14:43;;;;;;;23.23;14.32;;;9.00;99.90;;;;;;5156882;27;20022;-69
2021/11/02 00:17:16;;;;;;;23.27;13.82;;;9.00;99.90;;;;;;5156548;27;20410;-69
2021/11/02 00:19:43;;;;;;;24.13;13.95;;;9.00;99.90;;;;;;5156460;27;20018;-69
2021/11/02 00:22:18;;;;;;;21.50;13.75;;;9.00;99.90;;;;;;5156480;27;20026;-69
2021/11/02 00:27:23;;;;;;;26.98;14.23;;;9.00;99.90;;;;;;5156625;27;20023;-68
2021/11/02 00:29:49;;;;;;;22.73;14.40;;;9.00;99.90;;;;;;5156603;27;20019;-68
2021/11/02 00:32:16;;;;;;;22.75;14.73;;;9.00;99.90;;;;;;5156215;27;20110;-68
2021/11/02 00:34:42;;;;;;;23.83;14.77;;;9.00;99.90;;;;;;5156239;27;20014;-68
2021/11/02 00:37:07;;;;;;;19.90;13.73;;;9.00;99.90;;;;;;5156224;27;20023;-68
2021/11/02 00:39:34;;;;;;;22.42;13.50;;;9.00;99.90;;;;;;5156160;27;20019;-67
2021/11/02 00:42:00;;;;;;;22.42;13.15;;;9.00;99.90;;;;;;5156000;27;20118;-67
2021/11/02 00:44:26;;;;;;;20.73;13.68;;;9.00;99.90;;;;;;5156067;27;20071;-67
2021/11/02 00:46:52;;;;;;;21.17;13.70;;;9.00;99.90;;;;;;5156380;27;20026;-67
2021/11/02 00:49:21;;;;;;;21.05;14.52;;;9.00;99.90;;;;;;5155969;27;20102;-67
2021/11/02 00:51:47;;;;;;;24.52;14.73;;;9.00;99.90;;;;;;5156016;27;20118;-67
2021/11/02 00:54:13;;;;;;;23.60;15.50;;;9.00;99.90;;;;;;5156077;27;20049;-68
2021/11/02 00:56:40;;;;;;;23.15;14.73;;;9.00;99.90;;;;;;5155956;27;20030;-68
2021/11/02 00:59:06;;;;;;;20.80;13.80;;;9.00;99.90;;;;;;5155468;27;20071;-70
2021/11/02 01:01:34;;;;;;;20.65;14.30;;;9.00;99.90;;;;;;5155664;27;20054;-71
2021/11/02 01:04:04;;;;;;;22.75;15.50;;;9.00;99.90;;;;;;5155834;27;20481;-70
2021/11/02 01:06:31;;;;;;;24.08;15.98;;;9.00;99.90;;;;;;5155846;27;20027;-70
2021/11/02 01:08:58;;;;;;;23.83;15.65;;;9.00;99.90;;;;;;5155648;27;20052;-70
2021/11/02 01:11:24;;;;;;;22.33;14.57;;;9.00;99.90;;;;;;5154275;27;20395;-70
2021/11/02 01:13:50;;;;;;;23.52;14.75;;;9.00;99.90;;;;;;5155515;27;20431;-69
2021/11/02 01:16:16;;;;;;;23.30;16.23;;;9.00;99.90;;;;;;5154077;27;20071;-70
2021/11/02 01:18:42;;;;;;;23.33;15.40;;;9.00;99.90;;;;;;5155442;27;20079;-69
2021/11/02 01:21:07;;;;;;;25.15;16.00;;;9.00;99.90;;;;;;5155046;27;20088;-69
2021/11/02 01:23:33;;;;;;;24.60;14.90;;;9.00;99.90;;;;;;5155259;27;20023;-71
2021/11/02 01:25:59;;;;;;;22.38;15.20;;;9.00;99.90;;;;;;5155192;27;20139;-71
2021/11/02 01:28:25;;;;;;;25.83;15.32;;;9.00;99.90;;;;;;5155374;27;20030;-71
2021/11/02 01:30:51;;;;;;;23.67;15.88;;;9.00;99.90;;;;;;5155093;27;20031;-71
2021/11/02 01:33:17;;;;;;;23.63;16.58;;;9.00;99.90;;;;;;5154949;27;20470;-71
2021/11/02 01:35:43;;;;;;;27.75;17.00;;;9.00;99.90;;;;;;5154357;27;20116;-71
2021/11/02 01:38:10;;;;;;;22.77;15.48;;;9.00;99.90;;;;;;5153702;27;20034;-71
2021/11/02 01:40:37;;;;;;;23.05;14.90;;;9.00;99.90;;;;;;5154777;27;20478;-71
2021/11/02 01:43:03;;;;;;;23.48;15.45;;;9.00;99.90;;;;;;5155063;27;20026;-71
2021/11/02 01:45:29;;;;;;;26.05;17.20;;;9.00;99.90;;;;;;5154876;27;20486;-71
2021/11/02 01:47:55;;;;;;;25.15;16.65;;;9.00;99.90;;;;;;5154801;27;20394;-71
2021/11/02 01:50:22;;;;;;;27.60;16.20;;;8.90;99.90;;;;;;5154610;27;20478;-71
2021/11/02 01:52:48;;;;;;;25.23;16.40;;;8.90;99.90;;;;;;5154674;27;20022;-71
2021/11/02 01:55:17;;;;;;;24.98;16.98;;;8.90;99.90;;;;;;5154773;27;20032;-71
2021/11/02 01:57:45;;;;;;;23.15;16.75;;;8.90;99.90;;;;;;5154712;27;20428;-71
2021/11/02 02:00:13;;;;;;;28.98;17.83;;;8.90;99.90;;;;;;5154206;27;20047;-71
2021/11/02 02:03:08;;;;;;;26.48;17.90;;;8.90;99.90;;;;;;5154495;27;20031;-71
2021/11/02 02:05:48;;;;;;;30.02;17.88;;;8.90;99.90;;;;;;5148435;27;20039;-70
2021/11/02 02:08:34;;;;;;;25.95;18.02;;;8.90;99.90;;;;;;5154401;27;20026;-70
2021/11/02 02:11:15;;;;;;;25.92;17.83;;;8.90;99.90;;;;;;5154584;27;20099;-70
2021/11/02 02:13:41;;;;;;;23.48;17.08;;;8.90;99.90;;;;;;5154423;27;20041;-70
2021/11/02 02:16:14;;;;;;;26.10;18.45;;;8.90;99.90;;;;;;5154158;27;20478;-70
2021/11/02 02:18:58;;;;;;;28.67;19.35;;;8.90;99.90;;;;;;5154333;27;20504;-70
2021/11/02 02:21:54;;;;;;;28.77;19.40;;;8.90;99.90;;;;;;5154100;27;20046;-70
2021/11/02 02:24:28;;;;;;;25.48;18.35;;;8.90;99.90;;;;;;5154012;27;20071;-70
2021/11/02 02:56:03;;;;;;;24.70;17.48;;;8.70;99.90;;;;;;5153386;27;20034;-70
2021/11/02 02:58:33;;;;;;;25.55;18.25;;;8.70;99.90;;;;;;5153431;27;22040;-70
2021/11/02 03:00:59;;;;;;;28.13;19.55;;;8.70;99.90;;;;;;5153491;27;20510;-69
2021/11/02 03:03:25;;;;;;;26.00;18.90;;;8.70;99.90;;;;;;5153434;27;20031;-69
2021/11/02 03:05:56;;;;;;;25.30;18.17;;;8.70;99.90;;;;;;5153563;27;20022;-69
2021/11/02 03:08:21;;;;;;;;;;;8.70;99.90;;;;;;5153875;27;20023;-69
2021/11/02 03:10:51;;;;;;;27.50;17.55;;;8.70;99.90;;;;;;5153473;27;19910;-69
2021/11/02 03:13:19;;;;;;;28.38;19.00;;;8.60;99.90;;;;;;5153591;27;20155;-69
2021/11/02 03:15:54;;;;;;;30.15;19.55;;;8.60;99.90;;;;;;5153687;27;20034;-69
2021/11/02 03:49:15;;;;;;;22.92;17.40;;;8.60;99.90;;;;;;5153396;27;20030;-68
2021/11/02 04:44:40;;;;;;;24.00;17.30;;;8.70;99.90;;;;;;5156071;27;20083;-67
2021/11/02 05:47:33;;;;;;;23.77;17.95;;;9.80;99.90;;;;;;5141001;27;20042;-66
2021/11/02 05:50:22;;;;;;;29.65;19.35;;;9.50;99.90;;;;;;5144275;27;20096;-66
2021/11/02 06:00:30;;;;;;;29.20;19.58;;;9.00;99.90;;;;;;5142027;27;20046;-66
2021/11/02 06:05:56;;;;;;;30.45;20.10;;;8.90;99.90;;;;;;5143442;27;20031;-66
2021/11/02 06:28:02;;;;;;;32.47;21.10;;;8.80;99.90;;;;;;5139766;27;20030;-66
2021/11/02 06:30:42;;;;;;;28.90;20.20;;;8.80;99.90;;;;;;5149161;27;20034;-66
2021/11/02 06:33:27;;;;;;;37.05;22.50;;;8.80;99.90;;;;;;5154245;27;20390;-66
2021/11/02 06:52:52;;;;;;;33.83;20.55;;;8.70;99.90;;;;;;5153780;27;20109;-65
2021/11/02 08:46:45;;;;;;;;;;;8.90;99.90;;;;;;5134762;27;20490;-67
2021/11/02 08:49:10;;;;;;;31.48;20.00;;;8.90;99.90;;;;;;5133667;27;20370;-66
2021/11/02 08:51:36;;;;;;;35.67;23.02;;;9.00;99.90;;;;;;5134666;27;20145;-67
2021/11/02 08:54:03;;;;;;;34.83;21.35;;;9.00;99.90;;;;;;5134205;27;20031;-65
2021/11/02 08:56:29;;;;;;;35.90;21.75;;;9.00;99.90;;;;;;5134915;27;20402;-65
2021/11/02 08:58:55;;;;;;;34.22;21.20;;;9.00;99.90;;;;;;5134585;27;20566;-65
2021/11/02 09:01:25;;;;;;;36.55;21.38;;;9.00;99.90;;;;;;5134449;27;20527;-64
2021/11/02 09:04:01;;;;;;;36.20;23.37;;;8.90;99.90;;;;;;5134804;27;20030;-65
2021/11/02 09:06:27;;;;;;;37.80;22.00;;;8.90;99.90;;;;;;5134621;27;20029;-65
2021/11/02 09:08:56;;;;;;;39.22;23.25;;;8.90;99.90;;;;;;5134307;27;20518;-65
2021/11/02 09:11:27;;;;;;;37.83;22.73;;;8.90;99.90;;;;;;5134223;27;20023;-65
2021/11/02 09:13:55;;;;;;;36.80;22.90;;;9.00;99.90;;;;;;5133074;27;20025;-65
2021/11/02 09:16:22;;;;;;;35.63;21.70;;;9.00;99.90;;;;;;5134375;27;20665;-67
2021/11/02 09:18:49;;;;;;;40.08;23.85;;;9.20;99.90;;;;;;5132872;27;20023;-66
2021/11/02 09:21:16;;;;;;;34.85;21.42;;;9.30;99.90;;;;;;5134351;27;20063;-68
2021/11/02 09:23:44;;;;;;;34.30;21.80;;;9.20;99.90;;;;;;5134147;27;20462;-67
2021/11/02 09:26:10;;;;;;;35.25;22.67;;;9.10;99.90;;;;;;5134255;27;20368;-68
2021/11/02 09:28:36;;;;;;;36.90;24.15;;;9.00;99.90;;;;;;5134475;27;20050;-67
2021/11/02 09:31:04;;;;;;;42.75;26.15;;;9.00;99.90;;;;;;5134149;27;20496;-67
2021/11/02 09:33:33;;;;;;;42.47;24.67;;;8.90;99.90;;;;;;5133919;27;20390;-67
2021/11/02 09:36:08;;;;;;;42.05;25.70;;;9.00;99.90;;;;;;5134367;27;20030;-67
2021/11/02 09:38:57;;;;;;;41.90;26.50;;;8.90;99.90;;;;;;5133930;27;20045;-69
2021/11/02 09:41:35;;;;;;;47.70;26.25;;;8.90;99.90;;;;;;5136939;27;20524;-68
2021/11/02 09:44:02;;;;;;;46.15;25.38;;;8.90;99.90;;;;;;5142831;27;20580;-68
2021/11/02 09:46:47;;;;;;;42.45;26.30;;;8.90;99.90;;;;;;5143439;27;20458;-68
2021/11/02 09:49:42;;;;;;;42.50;25.00;;;8.80;99.90;;;;;;5135464;27;20115;-67
2021/11/02 09:52:07;;;;;;;41.90;24.30;;;8.80;99.90;;;;;;5134752;27;20037;-67
2021/11/02 09:55:04;;;;;;;45.50;26.17;;;8.80;99.90;;;;;;5139120;27;20019;-67
2021/11/02 09:58:07;;;;;;;43.95;24.50;;;8.80;99.90;;;;;;5142259;27;20378;-67
2021/11/02 10:00:45;;;;;;;40.05;25.23;;;8.80;99.90;;;;;;5143720;27;20038;-68
2021/11/02 10:03:35;;;;;;;44.13;26.40;;;8.80;99.90;;;;;;5140307;27;20023;-68
2021/11/02 10:06:18;;;;;;;50.70;27.08;;;8.80;99.90;;;;;;5142123;27;20545;-68
2021/11/02 10:09:03;;;;;;;44.13;26.37;;;8.80;99.90;;;;;;5133282;27;20019;-68
2021/11/02 10:11:53;;;;;;;45.17;26.35;;;8.80;99.90;;;;;;5136213;27;20106;-67
2021/11/02 10:14:32;;;;;;;44.47;24.88;;;8.80;99.90;;;;;;5141157;27;20018;-64
2021/11/02 10:17:41;;;;;;;48.58;26.65;;;8.80;99.90;;;;;;5139784;27;20045;-65
2021/11/02 10:20:11;;;;;;;42.85;25.33;;;8.80;99.90;;;;;;5152005;27;20037;-67
2021/11/02 10:22:54;;;;;;;45.55;27.17;;;8.80;99.90;;;;;;5153687;27;20102;-67
2021/11/02 10:25:51;;;;;;;43.80;27.10;;;8.90;99.90;;;;;;5153646;27;20041;-67
2021/11/02 10:28:38;;;;;;;47.97;26.40;;;8.90;99.90;;;;;;5153838;27;20641;-67
2021/11/02 10:31:22;;;;;;;44.38;25.67;;;8.90;99.90;;;;;;5152237;27;20442;-67
2021/11/02 10:34:00;;;;;;;45.53;25.23;;;8.90;99.90;;;;;;5153350;27;20505;-67
2021/11/02 10:36:42;;;;;;;45.60;26.33;;;8.80;99.90;;;;;;5153581;27;20362;-67
2021/11/02 10:39:21;;;;;;;43.15;26.52;;;8.80;99.90;;;;;;5150618;27;20035;-67
2021/11/02 10:42:37;;;;;;;49.95;26.63;;;8.80;99.90;;;;;;5134547;27;20034;-67
2021/11/02 10:45:09;;;;;;;43.70;26.50;;;8.80;99.90;;;;;;5141556;27;20029;-67
2021/11/02 10:47:57;;;;;;;46.50;25.67;;;8.80;99.90;;;;;;5141987;27;20107;-66
2021/11/02 10:50:28;;;;;;;49.75;26.65;;;8.80;99.90;;;;;;5142201;27;20019;-66
2021/11/02 10:53:03;;;;;;;43.92;25.15;;;8.80;99.90;;;;;;5142793;27;20020;-66
2021/11/02 10:56:21;;;;;;;56.10;29.35;;;8.80;99.90;;;;;;5138660;27;20390;-67
2021/11/02 10:58:51;;;;;;;43.15;24.98;;;8.80;99.90;;;;;;5128184;27;20118;-66
2021/11/02 11:01:18;;;;;;;46.67;25.17;;;8.80;99.90;;;;;;5143064;27;20056;-66
2021/11/02 11:03:47;;;;;;;37.38;24.73;;;8.80;99.90;;;;;;5140163;27;20019;-67
2021/11/02 11:06:14;;;;;;;47.22;25.90;;;8.80;99.90;;;;;;5122407;28;20506;-66
2021/11/02 11:08:41;;;;;;;48.88;26.20;;;8.80;99.90;;;;;;5119925;27;20030;-66
2021/11/02 11:11:17;;;;;;;51.38;26.98;;;8.80;99.90;;;;;;5129876;27;20023;-66
2021/11/02 11:13:48;;;;;;;46.67;27.55;;;8.80;99.90;;;;;;5142074;27;20136;-66
2021/11/02 11:16:19;;;;;;;42.33;25.10;;;8.80;99.90;;;;;;5146083;27;20399;-66
2021/11/02 11:18:52;;;;;;;44.60;26.13;;;8.80;99.90;;;;;;5149494;27;20031;-66
2021/11/02 11:21:19;;;;;;;51.15;25.85;;;8.80;99.90;;;;;;5134581;27;20488;-66
2021/11/02 11:24:10;;;;;;;42.25;24.85;;;8.80;99.90;;;;;;5137952;27;20038;-66
2021/11/02 11:26:36;;;;;;;;;;;8.80;99.90;;;;;;5130567;27;20030;-66
2021/11/02 11:29:06;;;;;;;42.65;25.58;;;8.80;99.90;;;;;;5132319;28;20294;-66
2021/11/02 11:31:32;;;;;;;44.25;25.80;;;8.80;99.90;;;;;;5138606;27;20469;-67
2021/11/02 11:34:03;;;;;;;42.83;25.63;;;8.80;99.90;;;;;;5152905;27;20023;-67
2021/11/02 11:36:33;;;;;;;43.35;26.05;;;8.80;99.90;;;;;;5152677;27;20102;-66
2021/11/02 11:39:01;;;;;;;;;;;8.80;99.90;;;;;;5148864;27;20030;-67
2021/11/02 11:41:32;;;;;;;53.80;26.77;;;8.80;99.90;;;;;;5141681;27;19916;-67
2021/11/02 11:44:02;;;;;;;44.58;25.63;;;8.80;99.90;;;;;;5130554;28;20011;-67
2021/11/02 11:46:29;;;;;;;47.38;26.25;;;8.80;99.90;;;;;;5120210;28;20404;-67
2021/11/02 11:48:58;;;;;;;46.60;26.08;;;8.80;99.90;;;;;;5120145;28;20031;-67
2021/11/02 11:51:26;;;;;;;43.55;25.27;;;8.70;99.90;;;;;;5131789;28;20027;-66
2021/11/02 11:54:03;;;;;;;37.13;22.88;;;8.80;99.90;;;;;;5131844;28;20522;-66
2021/11/02 11:56:33;;;;;;;41.67;23.25;;;8.80;99.90;;;;;;5132155;28;20170;-66
2021/11/02 11:58:59;;;;;;;;;;;8.80;99.90;;;;;;5130819;28;20516;-66
2021/11/02 12:01:35;;;;;;;37.55;22.20;;;8.80;99.90;;;;;;5131863;28;19915;-66
2021/11/02 12:04:33;;;;;;;37.22;21.02;;;8.80;99.90;;;;;;5132028;27;20094;-66
2021/11/02 12:07:13;;;;;;;39.75;21.75;;;8.80;99.90;;;;;;5131710;28;20027;-66
2021/11/02 12:09:45;;;;;;;39.15;22.13;;;8.70;99.90;;;;;;5131973;28;20049;-66
2021/11/02 12:12:12;;;;;;;34.25;21.08;;;8.70;99.90;;;;;;5131841;28;20039;-66
2021/11/02 12:14:45;;;;;;;31.75;19.17;;;8.80;99.90;;;;;;5131751;28;20045;-67
2021/11/02 12:17:16;;;;;;;26.52;17.73;;;8.80;99.90;;;;;;5136122;27;20035;-66
2021/11/02 12:19:54;;;;;;;30.40;18.88;;;8.70;99.90;;;;;;5141810;27;20072;-67
2021/11/02 12:22:27;;;;;;;24.30;15.80;;;8.70;99.90;;;;;;5142263;27;20019;-67
2021/11/02 12:25:18;;;;;;;26.20;15.95;;;8.70;99.90;;;;;;5146020;27;20106;-67
2021/11/02 12:27:44;;;;;;;22.95;13.68;;;8.70;99.90;;;;;;5142309;27;20064;-68
2021/11/02 12:30:13;;;;;;;17.77;12.65;;;9.30;99.90;;;;;;5135652;27;20482;-66
2021/11/02 12:32:51;;;;;;;17.13;12.32;;;10.10;99.90;;;;;;5135319;27;20058;-66
2021/11/02 12:35:42;;;;;;;16.95;12.05;;;9.90;99.90;;;;;;5135871;27;20034;-65
2021/11/02 12:38:09;;;;;;;16.63;10.77;;;10.10;99.90;;;;;;5125758;27;20035;-65
2021/11/02 12:40:41;;;;;;;14.73;9.77;;;9.90;99.90;;;;;;5135437;27;20052;-66
2021/11/02 12:43:28;;;;;;;15.73;10.32;;;9.60;99.90;;;;;;5149591;27;20022;-65
2021/11/02 12:45:57;;;;;;;12.93;8.85;;;9.40;99.90;;;;;;5155929;27;20023;-65
2021/11/02 12:48:24;;;;;;;12.90;9.77;;;9.20;99.90;;;;;;5155878;27;20352;-65
2021/11/02 12:50:52;;;;;;;13.85;10.55;;;9.20;99.90;;;;;;5156020;27;20018;-66
2021/11/02 12:53:20;;;;;;;15.80;9.55;;;9.10;99.90;;;;;;5155829;27;20347;-65
2021/11/02 12:55:46;;;;;;;13.27;8.98;;;9.10;99.90;;;;;;5155778;27;20031;-65
2021/11/02 12:58:12;;;;;;;11.93;8.48;;;9.00;99.90;;;;;;5156176;27;20094;-66
2021/11/02 13:00:51;;;;;;;11.10;8.75;;;9.00;99.90;;;;;;5155692;27;20121;-66
2021/11/02 13:03:26;;;;;;;13.57;8.40;;;9.10;99.90;;;;;;5155726;27;20037;-65
2021/11/02 13:05:59;;;;;;;11.68;7.68;;;9.90;99.90;;;;;;5154378;27;20038;-66
2021/11/02 13:08:54;;;;;;;9.40;7.57;;;9.60;99.90;;;;;;5155710;27;20029;-69
2021/11/02 13:11:22;;;;;;;9.57;7.20;;;9.40;99.90;;;;;;5155964;27;20023;-68
2021/11/02 13:14:02;;;;;;;10.25;7.88;;;9.30;99.90;;;;;;5155097;27;20033;-68
2021/11/02 13:16:51;;;;;;;10.93;8.45;;;9.10;99.90;;;;;;5155294;27;20035;-68
2021/11/02 13:19:17;;;;;;;9.05;7.60;;;9.10;99.90;;;;;;5155369;27;20046;-68
2021/11/02 13:21:45;;;;;;;9.07;7.28;;;9.00;99.90;;;;;;5154995;27;20487;-68
2021/11/02 13:24:12;;;;;;;8.63;7.50;;;9.00;99.90;;;;;;5155402;27;20043;-68
2021/11/02 13:26:46;;;;;;;10.05;7.35;;;8.90;99.90;;;;;;5155192;27;20052;-68
2021/11/02 13:29:23;;;;;;;9.30;7.22;;;8.90;99.90;;;;;;5155412;27;20022;-66
2021/11/02 13:31:56;;;;;;;8.43;6.82;;;8.90;99.90;;;;;;5154356;27;20428;-66
2021/11/02 13:34:31;;;;;;;10.50;7.82;;;8.90;99.90;;;;;;5155253;27;20079;-67
2021/11/02 13:37:11;;;;;;;8.50;6.93;;;8.90;99.90;;;;;;5154876;27;20031;-67
2021/11/02 13:39:54;;;;;;;8.45;6.97;;;8.90;99.90;;;;;;5155099;27;20018;-67
2021/11/02 13:42:46;;;;;;;11.30;7.60;;;8.80;99.90;;;;;;5155116;27;20123;-67
2021/11/02 13:45:13;;;;;;;9.85;7.47;;;8.90;99.90;;;;;;5154885;27;20034;-67
2021/11/02 13:47:43;;;;;;;9.93;7.95;;;8.80;99.90;;;;;;5154484;27;20390;-66
2021/11/02 13:50:10;;;;;;;11.40;8.57;;;8.80;99.90;;;;;;5134830;27;20024;-66
2021/11/02 13:52:35;;;;;;;14.15;8.68;;;8.70;99.90;;;;;;5123916;27;20533;-66
2021/11/02 13:55:03;;;;;;;12.35;8.77;;;8.70;99.90;;;;;;5123176;27;20088;-67
2021/11/02 13:57:29;;;;;;;11.90;8.15;;;8.70;99.90;;;;;;5122095;27;20076;-67
2021/11/02 13:59:54;;;;;;;10.93;7.70;;;8.70;99.90;;;;;;5123649;27;20039;-66
2021/11/02 14:02:22;;;;;;;11.27;8.55;;;8.60;99.90;;;;;;5122705;27;20153;-66
2021/11/02 14:04:51;;;;;;;11.98;8.98;;;8.70;99.90;;;;;;5121631;27;20082;-66
2021/11/02 14:07:20;;;;;;;10.18;8.13;;;8.60;99.90;;;;;;5123265;27;20023;-66
2021/11/02 14:09:52;;;;;;;11.20;8.02;;;8.60;99.90;;;;;;5126625;27;20197;-66
2021/11/02 14:12:31;;;;;;;13.60;9.30;;;8.60;99.90;;;;;;5122328;27;20012;-66
2021/11/02 14:15:12;;;;;;;11.40;9.13;;;8.60;99.90;;;;;;5139884;27;20084;-66
2021/11/02 14:17:39;;;;;;;11.63;8.68;;;8.50;99.90;;;;;;5122370;27;20821;-66
2021/11/02 14:20:06;;;;;;;13.30;8.95;;;8.50;99.90;;;;;;5122071;27;20065;-66
2021/11/02 14:22:42;;;;;;;12.13;8.30;;;8.50;99.90;;;;;;5123579;27;20437;-66
2021/11/02 14:25:16;;;;;;;13.15;9.68;;;8.50;99.90;;;;;;5126578;27;20065;-66
2021/11/02 14:27:43;;;;;;;15.75;9.77;;;8.50;99.90;;;;;;5136095;27;20085;-67
2021/11/02 14:30:20;;;;;;;13.07;8.77;;;8.60;99.90;;;;;;5131603;27;20436;-67
2021/11/02 14:32:47;;;;;;;13.52;9.98;;;8.50;99.90;;;;;;5123130;27;20023;-67
2021/11/02 14:35:44;;;;;;;15.30;9.30;;;8.50;99.90;;;;;;5121327;27;20020;-67
2021/11/02 14:38:18;;;;;;;12.50;9.32;;;8.60;99.90;;;;;;5123795;27;20085;-67
2021/11/02 14:40:55;;;;;;;16.52;9.85;;;8.50;99.90;;;;;;5122842;27;20030;-67
2021/11/02 14:43:27;;;;;;;13.50;9.85;;;8.50;99.90;;;;;;5122408;27;20103;-66
2021/11/02 14:45:55;;;;;;;14.25;10.05;;;8.50;99.90;;;;;;5134771;27;20397;-65
2021/11/02 14:48:29;;;;;;;13.73;9.60;;;8.50;99.90;;;;;;5141846;27;20018;-66
2021/11/02 14:51:00;;;;;;;13.68;10.15;;;8.50;99.90;;;;;;5121262;27;20089;-65
2021/11/02 14:53:30;;;;;;;13.65;10.13;;;8.50;99.90;;;;;;5121836;27;20025;-65
2021/11/02 14:56:06;;;;;;;14.23;10.48;;;8.50;99.90;;;;;;5132877;27;20625;-65
2021/11/02 14:58:43;;;;;;;13.68;9.55;;;8.50;99.90;;;;;;5153361;27;20022;-65
2021/11/02 15:01:16;;;;;;;15.05;10.60;;;8.50;99.90;;;;;;5150798;27;20034;-65
2021/11/02 15:04:01;;;;;;;14.18;10.38;;;8.40;99.90;;;;;;5121468;27;20015;-65
2021/11/02 15:06:36;;;;;;;16.42;10.98;;;8.40;99.90;;;;;;5118986;27;20023;-65
2021/11/02 15:09:10;;;;;;;15.18;9.90;;;8.40;99.90;;;;;;5125157;27;20019;-65
2021/11/02 15:11:38;;;;;;;14.88;10.60;;;8.40;99.90;;;;;;5120274;28;20024;-65
2021/11/02 15:14:13;;;;;;;14.45;10.02;;;8.40;99.90;;;;;;5121104;28;20019;-65
2021/11/02 15:16:47;;;;;;;14.23;10.30;;;8.30;99.90;;;;;;5120199;28;20157;-66
2021/11/02 15:19:14;;;;;;;14.63;10.77;;;8.30;99.90;;;;;;5120938;28;20018;-66
2021/11/02 15:21:44;;;;;;;13.27;10.02;;;8.30;99.90;;;;;;5119559;28;20554;-66
2021/11/02 15:24:20;;;;;;;;;;;8.30;99.90;;;;;;5125987;28;20024;-66
2021/11/02 15:26:54;;;;;;;13.70;10.05;;;8.30;99.90;;;;;;5122881;28;20185;-64
2021/11/02 15:29:23;;;;;;;16.83;10.77;;;8.30;99.90;;;;;;5121235;28;20019;-67
2021/11/02 15:32:07;;;;;;;13.82;10.13;;;8.30;99.90;;;;;;5120519;28;20043;-67
2021/11/02 15:34:40;;;;;;;14.35;9.07;;;8.40;99.90;;;;;;5121035;28;20015;-67
2021/11/02 15:37:08;;;;;;;11.95;8.93;;;8.30;99.90;;;;;;5121042;27;20151;-67
2021/11/02 15:39:34;;;;;;;11.45;8.70;;;8.40;99.90;;;;;;5120588;28;20027;-67
2021/11/02 15:42:02;;;;;;;11.90;8.35;;;8.40;99.90;;;;;;5121649;28;20398;-67
2021/11/02 15:44:29;;;;;;;11.80;8.93;;;8.30;99.90;;;;;;5122912;28;20019;-67
2021/11/02 15:46:55;;;;;;;12.23;7.97;;;8.30;99.90;;;;;;5124510;28;20387;-67
2021/11/02 15:49:24;;;;;;;11.05;8.18;;;8.30;99.90;;;;;;5127357;28;20030;-66
2021/11/02 15:51:58;;;;;;;9.57;7.50;;;8.30;99.90;;;;;;5132275;28;20019;-66
2021/11/02 15:54:26;;;;;;;9.32;7.18;;;8.40;99.90;;;;;;5133890;27;20106;-66
2021/11/02 15:57:07;;;;;;;11.60;8.45;;;8.40;99.90;;;;;;5136466;27;20059;-66
2021/11/02 15:59:33;;;;;;;9.10;6.38;;;8.30;99.90;;;;;;5134616;27;20134;-66
2021/11/02 16:01:59;;;;;;;10.07;6.18;;;8.30;99.90;;;;;;5136354;27;20122;-65
2021/11/02 16:04:25;;;;;;;8.00;5.63;;;8.30;99.90;;;;;;5136461;27;20011;-65
2021/11/02 16:07:07;;;;;;;6.63;5.55;;;8.20;99.90;;;;;;5136264;27;20058;-66
2021/11/02 16:09:52;;;;;;;9.90;5.93;;;8.20;99.90;;;;;;5136489;27;20054;-66
2021/11/02 16:12:25;;;;;;;5.78;4.95;;;8.20;99.90;;;;;;5135827;27;20465;-66
2021/11/02 16:15:14;;;;;;;8.75;5.40;;;8.20;99.90;;;;;;5136183;27;20019;-66
2021/11/02 16:17:49;;;;;;;7.40;4.80;;;8.20;99.90;;;;;;5136137;27;20019;-66
2021/11/02 16:20:30;;;;;;;6.47;4.97;;;8.10;99.90;;;;;;5136013;27;20026;-67
2021/11/02 16:23:02;;;;;;;6.55;4.75;;;8.10;99.90;;;;;;5136860;27;20039;-63
2021/11/02 16:25:30;;;;;;;7.75;4.38;;;8.20;99.90;;;;;;5136849;27;20019;-65
2021/11/02 16:28:28;;;;;;;5.70;4.53;;;8.10;99.90;;;;;;5135911;27;20035;-66
2021/11/02 16:31:03;;;;;;;6.85;4.85;;;8.10;99.90;;;;;;5122221;27;20131;-65
2021/11/02 16:33:33;;;;;;;6.40;5.10;;;8.10;99.90;;;;;;5134022;27;20471;-65
2021/11/02 16:36:11;;;;;;;6.85;5.57;;;8.10;99.90;;;;;;5135264;27;20068;-65
2021/11/02 16:38:37;;;;;;;6.82;4.80;;;8.10;99.90;;;;;;5135939;27;20075;-65
2021/11/02 16:41:05;;;;;;;8.80;5.43;;;8.10;99.90;;;;;;5135411;27;20422;-65
2021/11/02 16:43:45;;;;;;;6.30;4.95;;;8.10;99.90;;;;;;5135484;27;20084;-67
2021/11/02 16:46:22;;;;;;;5.88;5.10;;;8.10;99.90;;;;;;5135519;27;20054;-66
2021/11/02 16:48:48;;;;;;;8.45;5.47;;;8.10;99.90;;;;;;5134204;27;20116;-66
2021/11/02 16:51:16;;;;;;;7.72;5.32;;;8.10;99.90;;;;;;5135304;27;20407;-69
2021/11/02 16:53:42;;;;;;;7.18;5.05;;;8.40;99.90;;;;;;5135261;27;20475;-66
2021/11/02 16:56:22;;;;;;;6.82;4.93;;;10.00;99.90;;;;;;5135221;27;20023;-66
2021/11/02 16:58:52;;;;;;;9.63;5.22;;;9.90;99.90;;;;;;5135014;27;20530;-66
2021/11/02 17:01:22;;;;;;;8.98;5.95;;;9.20;99.90;;;;;;5135450;27;20047;-65
2021/11/02 17:03:49;;;;;;;10.73;6.38;;;8.80;99.90;;;;;;5134899;27;20015;-66
2021/11/02 17:06:20;;;;;;;9.85;6.63;;;8.60;99.90;;;;;;5133656;27;20106;-66
2021/11/02 17:09:08;;;;;;;9.77;7.18;;;8.40;99.90;;;;;;5135236;27;20023;-65
2021/11/02 17:11:44;;;;;;;12.18;7.80;;;8.40;99.90;;;;;;5135265;27;20023;-65
2021/11/02 17:14:13;;;;;;;12.80;8.65;;;8.30;99.90;;;;;;5134713;27;20475;-65
2021/11/02 17:16:45;;;;;;;11.93;8.55;;;8.20;99.90;;;;;;5134865;27;20034;-65
2021/11/02 17:19:11;;;;;;;12.73;8.82;;;8.20;99.90;;;;;;5134837;27;20019;-65
2021/11/02 17:21:38;;;;;;;13.38;8.63;;;8.20;99.90;;;;;;5134759;27;20042;-65
2021/11/02 17:24:05;;;;;;;13.80;9.32;;;8.20;99.90;;;;;;5134635;27;20028;-65
2021/11/02 17:26:33;;;;;;;13.82;8.70;;;8.10;99.90;;;;;;5135112;27;20027;-67
2021/11/02 17:29:01;;;;;;;15.82;9.93;;;8.90;99.90;;;;;;5134580;27;20019;-65
2021/11/02 17:31:31;;;;;;;15.18;10.02;;;9.50;99.90;;;;;;5134709;27;20030;-65
2021/11/02 17:33:57;;;;;;;14.25;10.20;;;9.20;99.90;;;;;;5134748;27;20446;-65
2021/11/02 17:36:23;;;;;;;16.83;10.73;;;8.90;99.90;;;;;;5139602;27;20507;-66
2021/11/02 17:38:51;;;;;;;16.60;10.55;;;8.70;99.90;;;;;;5155457;27;20022;-66
2021/11/02 17:41:17;;;;;;;19.25;11.10;;;8.50;99.90;;;;;;5156191;27;20044;-66
2021/11/02 17:43:46;;;;;;;18.08;11.70;;;8.40;99.90;;;;;;5155364;27;20114;-66
2021/11/02 17:46:13;;;;;;;16.67;11.43;;;8.30;99.90;;;;;;5155067;27;20075;-65
2021/11/02 17:48:39;;;;;;;18.00;12.32;;;8.30;99.90;;;;;;5155258;27;20256;-65
2021/11/02 17:51:05;;;;;;;18.40;12.02;;;8.20;99.90;;;;;;5138765;27;20465;-65
2021/11/02 17:53:36;;;;;;;18.95;12.48;;;8.20;99.90;;;;;;5134504;27;20031;-65
2021/11/02 17:56:03;;;;;;;;;;;8.20;99.90;;;;;;5134587;27;20050;-65
2021/11/02 17:58:29;;;;;;;17.90;11.82;;;8.10;99.90;;;;;;5134014;27;19903;-65
2021/11/02 18:00:59;;;;;;;18.33;12.68;;;8.10;99.90;;;;;;5133882;27;20035;-65
2021/11/02 18:03:28;;;;;;;23.23;13.43;;;8.10;99.90;;;;;;5134127;27;20026;-65
2021/11/02 18:06:02;;;;;;;21.60;13.15;;;8.00;99.90;;;;;;5133955;27;20027;-65
2021/11/02 18:08:33;;;;;;;19.90;12.32;;;8.00;99.90;;;;;;5139562;27;20019;-65
2021/11/02 18:11:01;;;;;;;22.65;12.23;;;8.00;99.90;;;;;;5113423;28;20376;-65
2021/11/02 18:13:28;;;;;;;19.00;12.23;;;8.00;99.90;;;;;;5113228;28;20035;-65
2021/11/02 18:15:54;;;;;;;20.70;12.90;;;7.90;99.90;;;;;;5113261;28;20494;-65
2021/11/02 18:18:22;;;;;;;19.30;12.35;;;7.90;99.90;;;;;;5112608;28;20027;-65
2021/11/02 18:20:48;;;;;;;19.10;12.50;;;7.90;99.90;;;;;;5113342;28;20040;-65
2021/11/02 18:23:15;;;;;;;22.05;13.20;;;7.90;99.90;;;;;;5113183;28;20110;-65
2021/11/02 18:25:42;;;;;;;18.67;12.75;;;7.80;99.90;;;;;;5113354;28;20030;-65
2021/11/02 18:28:08;;;;;;;23.00;12.57;;;7.80;99.90;;;;;;5111540;28;20386;-65
2021/11/02 18:30:34;;;;;;;26.20;13.77;;;7.80;99.90;;;;;;5113071;28;20026;-65
2021/11/02 18:33:01;;;;;;;22.25;12.73;;;7.80;99.90;;;;;;5112999;28;20411;-65
2021/11/02 18:35:26;;;;;;;23.98;14.13;;;7.80;99.90;;;;;;5113228;28;20031;-65
2021/11/02 18:37:55;;;;;;;21.75;13.10;;;7.90;99.90;;;;;;5111677;28;20027;-66
2021/11/02 18:40:22;;;;;;;21.08;11.63;;;7.90;99.90;;;;;;5112954;28;20019;-65
2021/11/02 18:42:57;;;;;;;17.63;12.13;;;8.00;99.90;;;;;;5111507;28;20035;-65